createdAt,value
2022-08-03T00:01:50.075Z,87.10
2022-08-03T00:06:43.981Z,92.70
2022-08-03T00:09:11.191Z,93.00
2022-08-03T00:11:38.554Z,92.30
2022-08-03T00:14:06.594Z,82.60
2022-08-03T00:19:01.533Z,93.10
2022-08-03T00:21:29.101Z,92.60
2022-08-03T00:26:23.344Z,92.80
2022-08-03T00:28:50.661Z,85.20
2022-08-03T00:31:23.056Z,93.20
2022-08-03T00:34:04.392Z,93.30
2022-08-03T00:41:25.461Z,93.10
2022-08-03T00:43:52.251Z,93.50
2022-08-03T00:46:21.810Z,90.30
2022-08-03T00:48:52.202Z,82.20
2022-08-03T00:51:21.379Z,86.70
2022-08-03T00:53:48.165Z,85.10
2022-08-03T00:56:16.340Z,83.90
2022-08-03T00:58:45.259Z,84.10
2022-08-03T01:01:12.591Z,91.10
2022-08-03T01:06:25.514Z,82.90
2022-08-03T01:09:11.205Z,82.90
2022-08-03T01:12:01.051Z,85.70
2022-08-03T01:14:31.269Z,93.50
2022-08-03T01:17:14.684Z,93.60
2022-08-03T01:19:50.821Z,93.30
2022-08-03T01:22:49.898Z,91.60
2022-08-03T01:25:36.242Z,89.80
2022-08-03T01:28:40.392Z,89.50
2022-08-03T01:31:10.254Z,93.80
2022-08-03T01:33:43.636Z,87.60
2022-08-03T01:36:18.025Z,93.70
2022-08-03T01:38:53.777Z,85.40
2022-08-03T01:41:24.902Z,85.80
2022-08-03T01:44:27.043Z,93.80
2022-08-03T01:46:47.588Z,94.10
2022-08-03T01:49:16.950Z,87.60
2022-08-03T01:52:03.149Z,90.00
2022-08-03T01:54:35.692Z,86.00
2022-08-03T01:57:03.913Z,93.90
2022-08-03T01:59:32.477Z,94.40
2022-08-03T02:02:28.717Z,93.60
2022-08-03T02:04:48.923Z,92.70
2022-08-03T02:07:16.793Z,94.40
2022-08-03T02:09:46.846Z,86.30
2022-08-03T02:12:15.232Z,93.90
2022-08-03T02:14:44.355Z,94.80
2022-08-03T02:17:12.463Z,94.30
2022-08-03T02:19:40.617Z,94.20
2022-08-03T02:22:11.608Z,94.50
2022-08-03T02:24:39.000Z,94.60
2022-08-03T02:27:28.734Z,94.40
2022-08-03T02:30:01.415Z,94.50
2022-08-03T02:32:40.977Z,95.00
2022-08-03T02:35:15.355Z,94.60
2022-08-03T02:37:49.692Z,94.80
2022-08-03T02:40:18.775Z,87.30
2022-08-03T02:42:46.584Z,95.00
2022-08-03T02:45:14.847Z,95.20
2022-08-03T02:47:53.986Z,92.10
2022-08-03T02:50:23.104Z,94.70
2022-08-03T02:52:53.156Z,87.50
2022-08-03T02:55:22.699Z,94.60
2022-08-03T02:57:51.436Z,95.00
2022-08-03T03:00:27.582Z,94.90
2022-08-03T03:03:00.450Z,87.70
2022-08-03T03:05:53.146Z,94.90
2022-08-03T03:08:20.904Z,94.50
2022-08-03T03:10:56.337Z,94.60
2022-08-03T03:13:23.802Z,94.50
2022-08-03T03:15:52.141Z,94.70
2022-08-03T03:18:22.824Z,94.70
2022-08-03T03:20:52.457Z,95.00
2022-08-03T03:23:24.790Z,87.90
2022-08-03T03:25:53.214Z,95.20
2022-08-03T03:28:20.736Z,95.00
2022-08-03T03:30:52.909Z,95.20
2022-08-03T03:33:21.633Z,93.90
2022-08-03T03:35:49.079Z,94.30
2022-08-03T03:43:11.977Z,88.60
2022-08-03T03:45:41.505Z,95.10
2022-08-03T03:50:37.522Z,95.00
2022-08-03T03:53:04.729Z,88.50
2022-08-03T03:55:31.703Z,95.40
2022-08-03T03:57:58.584Z,95.10
2022-08-03T04:02:52.544Z,95.30
2022-08-03T04:08:33.969Z,95.30
2022-08-03T04:11:29.323Z,86.70
2022-08-03T04:14:09.574Z,89.00
2022-08-03T04:16:43.685Z,87.90
2022-08-03T04:19:22.734Z,95.20
2022-08-03T04:21:52.487Z,90.20
2022-08-03T04:24:20.024Z,89.50
2022-08-03T04:26:52.732Z,95.50
2022-08-03T04:29:22.284Z,95.40
2022-08-03T04:31:50.559Z,95.30
2022-08-03T04:34:17.672Z,94.70
2022-08-03T04:36:55.137Z,94.80
2022-08-03T04:39:29.766Z,89.90
2022-08-03T04:42:06.926Z,95.10
2022-08-03T04:44:42.457Z,94.60
2022-08-03T04:47:09.524Z,87.90
2022-08-03T04:49:37.774Z,94.70
2022-08-03T04:52:07.268Z,94.90
2022-08-03T04:54:45.869Z,94.80
2022-08-03T04:59:59.576Z,94.20
2022-08-03T05:02:29.257Z,94.50
2022-08-03T05:07:24.968Z,95.00
2022-08-03T05:09:57.586Z,88.80
2022-08-03T05:12:32.707Z,94.50
2022-08-03T05:15:00.894Z,94.50
2022-08-03T05:17:28.558Z,94.80
2022-08-03T05:19:55.349Z,94.70
2022-08-03T05:22:22.795Z,94.50
2022-08-03T05:24:49.708Z,94.20
2022-08-03T05:27:19.662Z,94.30
2022-08-03T05:29:47.130Z,94.20
2022-08-03T05:34:41.113Z,94.30
2022-08-03T05:37:08.674Z,94.60
2022-08-03T05:39:36.051Z,94.10
2022-08-03T05:42:02.913Z,91.10
2022-08-03T05:46:59.233Z,91.70
2022-08-03T05:49:26.122Z,93.60
2022-08-03T05:52:00.439Z,93.60
2022-08-03T05:54:57.257Z,93.30
2022-08-03T05:57:27.368Z,88.50
2022-08-03T06:02:27.213Z,93.30
2022-08-03T06:04:54.279Z,92.70
2022-08-03T06:07:24.253Z,90.80
2022-08-03T06:10:34.240Z,90.30
2022-08-03T06:15:09.851Z,92.50
2022-08-03T06:17:48.984Z,82.30
2022-08-03T06:20:20.098Z,92.70
2022-08-03T06:22:51.281Z,92.50
2022-08-03T06:25:27.453Z,92.30
2022-08-03T06:27:54.257Z,91.80
2022-08-03T06:30:21.540Z,92.30
2022-08-03T06:32:51.722Z,92.20
2022-08-03T06:35:19.928Z,80.00
2022-08-03T06:37:50.146Z,91.30
2022-08-03T06:40:21.756Z,91.00
2022-08-03T06:42:51.296Z,91.00
2022-08-03T06:47:45.581Z,90.90
2022-08-03T06:52:44.250Z,90.90
2022-08-03T06:55:11.422Z,86.30
2022-08-03T06:57:38.217Z,90.80
2022-08-03T07:00:08.497Z,85.70
2022-08-03T07:02:38.635Z,90.20
2022-08-03T07:05:06.820Z,90.20
2022-08-03T07:10:00.770Z,90.30
2022-08-03T07:12:30.271Z,77.60
2022-08-03T07:15:01.328Z,90.50
2022-08-03T07:17:30.881Z,89.80
2022-08-03T07:19:58.217Z,89.30
2022-08-03T07:22:25.071Z,90.10
2022-08-03T07:27:19.232Z,89.40
2022-08-03T07:32:13.129Z,88.10
2022-08-03T07:34:40.021Z,87.80
2022-08-03T07:37:07.551Z,81.40
2022-08-03T07:42:02.051Z,88.10
2022-08-03T07:46:58.904Z,86.30
2022-08-03T07:49:30.178Z,87.00
2022-08-03T07:52:15.808Z,85.50
2022-08-03T07:54:42.673Z,85.90
2022-08-03T07:57:09.872Z,72.40
2022-08-03T07:59:56.401Z,86.00
2022-08-03T08:02:25.189Z,84.90
2022-08-03T08:07:19.334Z,83.30
2022-08-03T08:09:47.640Z,84.80
2022-08-03T08:12:15.345Z,83.00
2022-08-03T08:17:13.055Z,74.40
2022-08-03T08:19:50.500Z,81.80
2022-08-03T08:22:30.263Z,82.90
2022-08-03T08:25:01.319Z,80.60
2022-08-03T08:27:28.464Z,81.70
2022-08-03T08:30:21.290Z,81.80
2022-08-03T08:32:49.264Z,67.00
2022-08-03T08:35:17.191Z,80.20
2022-08-03T08:37:44.395Z,78.20
2022-08-03T08:40:21.778Z,79.70
2022-08-03T08:42:58.527Z,78.70
2022-08-03T08:45:26.517Z,77.40
2022-08-03T08:48:00.372Z,78.10
2022-08-03T08:50:29.657Z,77.10
2022-08-03T08:53:00.201Z,77.40
2022-08-03T08:55:27.118Z,76.50
2022-08-03T08:58:00.486Z,62.40
2022-08-03T09:00:27.388Z,76.50
2022-08-03T09:05:35.734Z,65.80
2022-08-03T09:08:11.127Z,74.10
2022-08-03T09:10:37.850Z,75.50
2022-08-03T09:15:33.166Z,73.60
2022-08-03T09:18:02.607Z,67.30
2022-08-03T09:20:32.266Z,60.30
2022-08-03T09:23:24.680Z,72.80
2022-08-03T09:26:00.143Z,65.60
2022-08-03T09:29:00.799Z,72.60
2022-08-03T09:31:32.537Z,73.10
2022-08-03T09:34:02.594Z,72.90
2022-08-03T09:36:37.440Z,71.90
2022-08-03T09:39:13.525Z,63.80
2022-08-03T09:41:41.910Z,71.60
2022-08-03T09:44:09.241Z,58.20
2022-08-03T09:46:56.472Z,71.30
2022-08-03T09:49:24.243Z,71.60
2022-08-03T09:52:33.907Z,71.40
2022-08-03T09:54:38.818Z,70.30
2022-08-03T09:57:05.588Z,70.40
2022-08-03T09:59:33.459Z,58.00
2022-08-03T10:02:01.916Z,70.50
2022-08-03T10:07:10.580Z,69.40
2022-08-03T10:09:37.907Z,58.70
2022-08-03T10:12:11.892Z,68.50
2022-08-03T10:14:41.768Z,54.70
2022-08-03T10:17:09.827Z,68.60
2022-08-03T10:19:36.721Z,67.10
2022-08-03T10:22:18.668Z,67.60
2022-08-03T10:25:07.766Z,67.20
2022-08-03T10:27:39.353Z,68.50
2022-08-03T10:30:08.640Z,53.30
2022-08-03T10:32:48.628Z,67.60
2022-08-03T10:35:20.779Z,65.10
2022-08-03T10:38:03.444Z,51.50
2022-08-03T10:40:48.187Z,66.60
2022-08-03T10:43:25.145Z,66.10
2022-08-03T10:45:52.269Z,65.00
2022-08-03T10:48:21.253Z,65.60
2022-08-03T10:50:50.753Z,64.60
2022-08-03T10:53:35.659Z,63.90
2022-08-03T10:56:35.405Z,64.30
2022-08-03T10:59:09.015Z,64.70
2022-08-03T11:01:59.902Z,63.30
2022-08-03T11:04:29.734Z,63.30
2022-08-03T11:07:24.367Z,62.70
2022-08-03T11:09:56.118Z,62.10
2022-08-03T11:12:28.978Z,62.00
2022-08-03T11:15:08.846Z,48.60
2022-08-03T11:17:46.758Z,60.70
2022-08-03T11:20:44.545Z,61.70
2022-08-03T11:23:12.033Z,62.10
2022-08-03T11:26:16.532Z,50.20
2022-08-03T11:28:45.871Z,57.90
2022-08-03T11:31:49.281Z,59.90
2022-08-03T11:34:17.489Z,61.10
2022-08-03T11:37:23.172Z,61.70
2022-08-03T11:39:53.104Z,61.20
2022-08-03T11:42:23.151Z,60.20
2022-08-03T11:44:54.618Z,60.20
2022-08-03T11:47:24.362Z,59.80
2022-08-03T11:49:54.054Z,58.80
2022-08-03T11:52:27.356Z,58.70
2022-08-03T11:54:57.535Z,59.00
2022-08-03T11:59:19.212Z,59.40
2022-08-03T12:00:32.839Z,59.10
2022-08-03T12:03:08.947Z,59.00
2022-08-03T12:05:41.582Z,56.90
2022-08-03T12:08:28.395Z,57.40
2022-08-03T12:10:57.578Z,56.80
2022-08-03T12:14:33.013Z,57.20
2022-08-03T12:16:23.402Z,56.40
2022-08-03T12:19:06.714Z,56.20
2022-08-03T12:21:33.725Z,55.30
2022-08-03T12:24:02.669Z,56.00
2022-08-03T12:26:42.201Z,54.50
2022-08-03T12:29:16.086Z,55.60
2022-08-03T12:31:43.016Z,55.50
2022-08-03T12:34:09.795Z,41.80
2022-08-03T12:36:37.396Z,54.40
2022-08-03T12:39:09.262Z,54.20
2022-08-03T12:41:38.209Z,53.50
2022-08-03T12:44:07.353Z,55.40
2022-08-03T12:46:42.748Z,55.60
2022-08-03T12:49:19.906Z,54.90
2022-08-03T12:51:46.673Z,55.10
2022-08-03T12:54:18.162Z,54.70
2022-08-03T12:57:01.907Z,54.40
2022-08-03T12:59:52.641Z,56.10
2022-08-03T13:02:23.701Z,42.80
2022-08-03T13:04:52.533Z,42.70
2022-08-03T13:07:20.459Z,42.60
2022-08-03T13:09:55.581Z,54.90
2022-08-03T13:12:23.570Z,41.10
2022-08-03T13:14:56.668Z,57.30
2022-08-03T13:17:23.693Z,55.70
2022-08-03T13:22:19.117Z,55.60
2022-08-03T13:24:47.937Z,43.60
2022-08-03T13:28:00.959Z,57.00
2022-08-03T13:30:02.345Z,56.20
2022-08-03T13:32:29.264Z,44.80
2022-08-03T13:34:56.030Z,43.90
2022-08-03T13:37:23.105Z,57.50
2022-08-03T13:39:59.246Z,43.60
2022-08-03T13:42:31.868Z,57.90
2022-08-03T13:44:59.687Z,44.60
2022-08-03T13:47:27.111Z,44.30
2022-08-03T13:50:00.287Z,56.90
2022-08-03T13:52:33.423Z,59.20
2022-08-03T13:55:01.254Z,57.60
2022-08-03T13:58:05.417Z,59.20
2022-08-03T14:00:26.615Z,45.60
2022-08-03T14:03:06.468Z,57.90
2022-08-03T14:05:34.353Z,56.60
2022-08-03T14:08:04.305Z,58.30
2022-08-03T14:10:33.855Z,58.50
2022-08-03T14:13:00.722Z,45.00
2022-08-03T14:15:28.654Z,59.30
2022-08-03T14:17:58.507Z,45.60
2022-08-03T14:20:38.020Z,45.60
2022-08-03T14:23:14.265Z,58.30
2022-08-03T14:25:50.448Z,57.20
2022-08-03T14:28:20.670Z,56.80
2022-08-03T14:30:48.427Z,45.10
2022-08-03T14:33:15.529Z,58.00
2022-08-03T14:35:42.620Z,59.10
2022-08-03T14:38:09.368Z,58.20
2022-08-03T14:40:36.236Z,57.70
2022-08-03T14:43:02.970Z,45.40
2022-08-03T14:45:29.714Z,45.50
2022-08-03T14:50:30.726Z,57.10
2022-08-03T14:50:46.993Z,59.30
2022-08-03T14:53:17.895Z,58.90
2022-08-03T14:55:49.720Z,59.60
2022-08-03T14:58:22.762Z,59.60
2022-08-03T15:00:51.610Z,58.80
2022-08-03T15:03:21.430Z,45.90
2022-08-03T15:05:48.589Z,59.30
2022-08-03T15:08:15.532Z,58.70
2022-08-03T15:10:44.016Z,45.80
2022-08-03T15:13:14.226Z,43.90
2022-08-03T15:15:41.159Z,58.50
2022-08-03T15:18:08.317Z,58.40
2022-08-03T15:20:50.810Z,59.30
2022-08-03T15:23:18.300Z,58.90
2022-08-03T15:26:30.330Z,57.10
2022-08-03T15:28:32.572Z,57.40
2022-08-03T15:30:59.467Z,57.70
2022-08-03T15:33:26.280Z,58.60
2022-08-03T15:35:53.316Z,60.20
2022-08-03T15:38:22.933Z,56.10
2022-08-03T15:40:56.019Z,60.00
2022-08-03T15:43:23.338Z,58.70
2022-08-03T15:46:19.158Z,60.50
2022-08-03T15:48:37.332Z,59.00
2022-08-03T15:51:05.379Z,59.50
2022-08-03T15:53:33.523Z,60.60
2022-08-03T15:56:03.325Z,60.00
2022-08-03T15:59:03.690Z,59.40
2022-08-03T16:01:21.362Z,60.90
2022-08-03T16:03:48.447Z,59.90
2022-08-03T16:06:16.010Z,61.00
2022-08-03T16:08:43.142Z,59.60
2022-08-03T16:11:12.343Z,59.30
2022-08-03T16:16:26.274Z,47.40
2022-08-03T16:18:53.012Z,59.50
2022-08-03T16:21:21.709Z,59.70
2022-08-03T16:23:48.774Z,59.40
2022-08-03T16:26:15.682Z,58.90
2022-08-03T16:28:42.450Z,59.40
2022-08-03T16:31:09.437Z,60.50
2022-08-03T16:33:38.527Z,60.50
2022-08-03T16:36:05.457Z,59.00
2022-08-03T16:38:32.183Z,58.30
2022-08-03T16:40:58.925Z,58.40
2022-08-03T16:43:25.777Z,58.90
2022-08-03T16:45:55.053Z,58.20
2022-08-03T16:48:21.888Z,59.20
2022-08-03T16:50:48.873Z,58.70
2022-08-03T16:53:17.503Z,46.60
2022-08-03T16:56:00.148Z,60.20
2022-08-03T16:58:41.437Z,59.20
2022-08-03T17:01:21.988Z,58.80
2022-08-03T17:04:03.061Z,60.60
2022-08-03T17:06:35.897Z,59.00
2022-08-03T17:09:11.226Z,59.40
2022-08-03T17:11:46.676Z,59.60
2022-08-03T17:14:16.469Z,47.40
2022-08-03T17:16:52.993Z,60.50
2022-08-03T17:19:24.898Z,60.50
2022-08-03T17:22:01.547Z,60.00
2022-08-03T17:24:41.530Z,46.10
2022-08-03T17:28:41.728Z,59.60
2022-08-03T17:30:12.187Z,47.70
2022-08-03T17:32:57.394Z,61.20
2022-08-03T17:35:34.382Z,61.70
2022-08-03T17:38:05.872Z,48.20
2022-08-03T17:40:33.701Z,61.50
2022-08-03T17:43:02.314Z,61.30
2022-08-03T17:45:52.791Z,60.10
2022-08-03T17:48:24.885Z,60.20
2022-08-03T17:50:59.010Z,61.90
2022-08-03T17:53:31.362Z,60.50
2022-08-03T17:56:40.451Z,62.50
2022-08-03T17:59:50.846Z,55.10
2022-08-03T18:02:51.807Z,60.70
2022-08-03T18:05:21.775Z,49.90
2022-08-03T18:07:59.369Z,61.20
2022-08-03T18:10:33.529Z,61.40
2022-08-03T18:13:14.079Z,63.20
2022-08-03T18:15:51.804Z,61.30
2022-08-03T18:18:29.348Z,61.70
2022-08-03T18:21:04.624Z,62.60
2022-08-03T18:23:37.146Z,61.80
2022-08-03T18:26:12.108Z,63.50
2022-08-03T18:28:39.146Z,50.60
2022-08-03T18:31:08.999Z,63.60
2022-08-03T18:34:16.858Z,64.10
2022-08-03T18:36:30.588Z,63.80
2022-08-03T18:39:00.220Z,62.70
2022-08-03T18:41:32.943Z,62.80
2022-08-03T18:44:08.449Z,63.60
2022-08-03T18:47:16.347Z,64.00
2022-08-03T18:50:19.292Z,61.40
2022-08-03T18:52:58.037Z,65.10
2022-08-03T18:55:38.409Z,65.10
2022-08-03T18:58:27.653Z,64.10
2022-08-03T19:02:00.592Z,64.80
2022-08-03T19:04:24.360Z,64.70
2022-08-03T19:06:58.802Z,66.40
2022-08-03T19:09:52.066Z,66.50
2022-08-03T19:12:30.646Z,52.90
2022-08-03T19:15:10.431Z,67.10
2022-08-03T19:17:50.112Z,53.20
2022-08-03T19:20:25.608Z,66.00
2022-08-03T19:22:54.547Z,66.20
2022-08-03T19:25:34.499Z,58.90
2022-08-03T19:28:06.293Z,57.50
2022-08-03T19:30:53.233Z,68.00
2022-08-03T19:33:23.789Z,65.90
2022-08-03T19:35:55.231Z,60.40
2022-08-03T19:38:29.313Z,67.60
2022-08-03T19:41:14.869Z,68.20
2022-08-03T19:43:53.720Z,68.50
2022-08-03T19:46:52.006Z,69.00
2022-08-03T19:50:06.067Z,69.70
2022-08-03T19:52:16.340Z,69.60
2022-08-03T19:54:54.006Z,69.90
2022-08-03T19:57:25.395Z,56.40
2022-08-03T19:59:53.952Z,69.90
2022-08-03T20:04:59.906Z,69.80
2022-08-03T20:07:29.354Z,70.20
2022-08-03T20:09:59.683Z,72.00
2022-08-03T20:12:32.065Z,61.50
2022-08-03T20:15:01.516Z,70.70
2022-08-03T20:17:56.692Z,70.30
2022-08-03T20:20:29.982Z,71.30
2022-08-03T20:23:06.727Z,68.00
2022-08-03T20:25:48.795Z,72.10
2022-08-03T20:28:28.610Z,59.60
2022-08-03T20:30:56.405Z,72.10
2022-08-03T20:33:34.577Z,72.40
2022-08-03T20:36:10.405Z,73.70
2022-08-03T20:38:43.715Z,73.10
2022-08-03T20:41:10.638Z,72.90
2022-08-03T20:46:30.952Z,73.00
2022-08-03T20:48:52.671Z,73.40
2022-08-03T20:51:50.051Z,74.90
2022-08-03T20:54:22.701Z,75.60
2022-08-03T20:56:56.711Z,62.60
2022-08-03T20:59:24.404Z,74.30
2022-08-03T21:01:51.102Z,75.80
2022-08-03T21:04:20.892Z,75.90
2022-08-03T21:06:53.952Z,76.40
2022-08-03T21:09:33.416Z,66.40
2022-08-03T21:12:12.047Z,76.30
2022-08-03T21:14:43.599Z,62.90
2022-08-03T21:17:25.168Z,76.80
2022-08-03T21:20:00.898Z,75.90
2022-08-03T21:22:33.014Z,76.40
2022-08-03T21:25:03.620Z,63.90
2022-08-03T21:27:31.781Z,76.40
2022-08-03T21:30:08.872Z,71.20
2022-08-03T21:35:09.458Z,65.50
2022-08-03T21:37:37.298Z,77.90
2022-08-03T21:40:04.399Z,77.00
2022-08-03T21:42:31.089Z,77.80
2022-08-03T21:44:57.869Z,77.40
2022-08-03T21:47:25.231Z,64.90
2022-08-03T21:50:07.811Z,77.80
2022-08-03T21:52:41.508Z,78.00
2022-08-03T21:55:09.346Z,78.20
2022-08-03T21:57:51.521Z,79.50
2022-08-03T22:00:20.445Z,79.70
2022-08-03T22:02:55.655Z,67.30
2022-08-03T22:05:42.926Z,79.70
2022-08-03T22:08:13.341Z,66.00
2022-08-03T22:10:42.974Z,78.70
2022-08-03T22:13:10.085Z,73.60
2022-08-03T22:15:37.131Z,73.60
2022-08-03T22:18:04.797Z,79.50
2022-08-03T22:23:02.178Z,80.00
2022-08-03T22:25:31.495Z,80.80
2022-08-03T22:28:00.843Z,73.20
2022-08-03T22:30:28.110Z,82.20
2022-08-03T22:32:56.243Z,82.00
2022-08-03T22:35:25.703Z,82.40
2022-08-03T22:37:55.062Z,68.80
2022-08-03T22:40:21.925Z,81.80
2022-08-03T22:42:51.322Z,69.10
2022-08-03T22:46:06.094Z,73.60
2022-08-03T22:48:08.418Z,83.60
2022-08-03T22:50:35.791Z,71.60
2022-08-03T22:53:02.987Z,84.30
2022-08-03T22:55:30.064Z,83.20
2022-08-03T22:57:56.764Z,84.00
2022-08-03T23:00:24.504Z,71.10
2022-08-03T23:02:53.550Z,84.40
2022-08-03T23:06:00.476Z,69.00
2022-08-03T23:08:18.176Z,83.90
2022-08-03T23:10:47.483Z,84.50
2022-08-03T23:13:17.807Z,71.30
2022-08-03T23:15:51.135Z,85.30
2022-08-03T23:18:19.386Z,85.00
2022-08-03T23:20:49.696Z,71.00
2022-08-03T23:23:20.035Z,85.20
2022-08-03T23:25:50.663Z,84.40
2022-08-03T23:28:17.968Z,84.80
2022-08-03T23:30:45.662Z,71.60
2022-08-03T23:33:16.270Z,84.90
2022-08-03T23:36:28.327Z,72.70
2022-08-03T23:38:47.799Z,83.50
2022-08-03T23:41:17.436Z,85.80
2022-08-03T23:43:53.715Z,85.50
2022-08-03T23:46:25.854Z,85.40
2022-08-03T23:48:53.840Z,86.10
2022-08-03T23:52:00.661Z,72.40
2022-08-03T23:57:08.380Z,84.60
2022-08-03T23:59:51.955Z,86.50
